sensor_id;sensor_type;location;lat;lon;timestamp;temperature;humidity
49184;DHT22;35021;49.214;12.270;2023-07-20T00:00:52;23.00;61.00
49184;DHT22;35021;49.214;12.270;2023-07-20T00:03:20;23.00;60.90
49184;DHT22;35021;49.214;12.270;2023-07-20T00:05:50;23.00;60.90
49184;DHT22;35021;49.214;12.270;2023-07-20T00:08:18;23.00;60.90
49184;DHT22;35021;49.214;12.270;2023-07-20T00:10:45;23.00;61.50
49184;DHT22;35021;49.214;12.270;2023-07-20T00:13:12;23.00;60.80
49184;DHT22;35021;49.214;12.270;2023-07-20T00:15:39;23.00;60.70
49184;DHT22;35021;49.214;12.270;2023-07-20T00:18:07;23.00;60.70
49184;DHT22;35021;49.214;12.270;2023-07-20T00:20:34;23.00;60.60
49184;DHT22;35021;49.214;12.270;2023-07-20T00:23:01;23.00;60.60
49184;DHT22;35021;49.214;12.270;2023-07-20T00:25:28;23.00;60.60
49184;DHT22;35021;49.214;12.270;2023-07-20T00:27:55;23.00;60.50
49184;DHT22;35021;49.214;12.270;2023-07-20T00:30:22;23.00;60.40
49184;DHT22;35021;49.214;12.270;2023-07-20T00:32:49;23.00;60.40
49184;DHT22;35021;49.214;12.270;2023-07-20T00:35:16;23.00;60.40
49184;DHT22;35021;49.214;12.270;2023-07-20T00:37:43;23.00;60.30
49184;DHT22;35021;49.214;12.270;2023-07-20T00:40:10;23.00;60.20
49184;DHT22;35021;49.214;12.270;2023-07-20T00:42:37;23.00;60.10
49184;DHT22;35021;49.214;12.270;2023-07-20T00:45:05;23.00;60.00
49184;DHT22;35021;49.214;12.270;2023-07-20T00:47:32;23.00;60.00
49184;DHT22;35021;49.214;12.270;2023-07-20T00:49:59;23.00;59.90
49184;DHT22;35021;49.214;12.270;2023-07-20T00:52:27;23.00;59.90
49184;DHT22;35021;49.214;12.270;2023-07-20T00:54:56;23.00;59.80
49184;DHT22;35021;49.214;12.270;2023-07-20T00:57:24;23.00;59.80
49184;DHT22;35021;49.214;12.270;2023-07-20T00:59:52;23.00;59.70
49184;DHT22;35021;49.214;12.270;2023-07-20T01:02:20;23.00;59.70
49184;DHT22;35021;49.214;12.270;2023-07-20T01:04:47;23.00;59.70
49184;DHT22;35021;49.214;12.270;2023-07-20T01:07:28;23.00;59.70
49184;DHT22;35021;49.214;12.270;2023-07-20T01:10:31;23.00;59.70
49184;DHT22;35021;49.214;12.270;2023-07-20T01:13:00;23.00;59.70
49184;DHT22;35021;49.214;12.270;2023-07-20T01:15:28;22.90;59.60
49184;DHT22;35021;49.214;12.270;2023-07-20T01:17:55;22.90;59.60
49184;DHT22;35021;49.214;12.270;2023-07-20T01:20:23;22.90;59.60
49184;DHT22;35021;49.214;12.270;2023-07-20T01:26:11;22.90;59.60
49184;DHT22;35021;49.214;12.270;2023-07-20T01:28:57;22.90;59.60
49184;DHT22;35021;49.214;12.270;2023-07-20T01:31:36;22.90;59.70
49184;DHT22;35021;49.214;12.270;2023-07-20T01:34:05;22.90;59.70
49184;DHT22;35021;49.214;12.270;2023-07-20T01:36:36;22.90;59.70
49184;DHT22;35021;49.214;12.270;2023-07-20T01:39:05;22.90;59.70
49184;DHT22;35021;49.214;12.270;2023-07-20T01:41:33;22.90;59.70
49184;DHT22;35021;49.214;12.270;2023-07-20T01:44:00;22.90;59.80
49184;DHT22;35021;49.214;12.270;2023-07-20T01:46:30;22.90;59.70
49184;DHT22;35021;49.214;12.270;2023-07-20T01:48:57;22.90;59.70
49184;DHT22;35021;49.214;12.270;2023-07-20T01:51:24;22.90;59.80
49184;DHT22;35021;49.214;12.270;2023-07-20T01:53:51;22.90;59.80
49184;DHT22;35021;49.214;12.270;2023-07-20T01:56:17;22.90;59.80
49184;DHT22;35021;49.214;12.270;2023-07-20T01:58:44;22.90;59.80
49184;DHT22;35021;49.214;12.270;2023-07-20T02:01:11;22.90;59.70
49184;DHT22;35021;49.214;12.270;2023-07-20T02:03:38;22.90;59.70
49184;DHT22;35021;49.214;12.270;2023-07-20T02:06:05;22.90;59.60
49184;DHT22;35021;49.214;12.270;2023-07-20T02:08:32;22.90;59.60
49184;DHT22;35021;49.214;12.270;2023-07-20T02:10:59;22.90;59.60
49184;DHT22;35021;49.214;12.270;2023-07-20T02:13:25;22.90;59.60
49184;DHT22;35021;49.214;12.270;2023-07-20T02:15:55;22.90;59.60
49184;DHT22;35021;49.214;12.270;2023-07-20T02:18:22;22.90;59.50
49184;DHT22;35021;49.214;12.270;2023-07-20T02:20:48;22.90;59.50
49184;DHT22;35021;49.214;12.270;2023-07-20T02:23:15;22.90;59.50
49184;DHT22;35021;49.214;12.270;2023-07-20T02:25:42;22.90;59.50
49184;DHT22;35021;49.214;12.270;2023-07-20T02:28:13;22.90;59.50
49184;DHT22;35021;49.214;12.270;2023-07-20T02:30:40;22.90;59.50
49184;DHT22;35021;49.214;12.270;2023-07-20T02:33:07;22.90;59.40
49184;DHT22;35021;49.214;12.270;2023-07-20T02:35:35;22.90;59.30
49184;DHT22;35021;49.214;12.270;2023-07-20T02:38:02;22.90;59.30
49184;DHT22;35021;49.214;12.270;2023-07-20T02:40:29;22.90;59.20
49184;DHT22;35021;49.214;12.270;2023-07-20T02:42:56;22.90;59.30
49184;DHT22;35021;49.214;12.270;2023-07-20T02:45:23;22.90;59.20
49184;DHT22;35021;49.214;12.270;2023-07-20T02:47:50;22.90;59.20
49184;DHT22;35021;49.214;12.270;2023-07-20T02:50:17;22.90;59.20
49184;DHT22;35021;49.214;12.270;2023-07-20T02:52:44;22.90;59.20
49184;DHT22;35021;49.214;12.270;2023-07-20T02:55:11;22.90;59.20
49184;DHT22;35021;49.214;12.270;2023-07-20T02:57:37;22.90;59.20
49184;DHT22;35021;49.214;12.270;2023-07-20T03:00:05;22.90;59.30
49184;DHT22;35021;49.214;12.270;2023-07-20T03:02:33;22.90;59.30
49184;DHT22;35021;49.214;12.270;2023-07-20T03:05:00;22.90;59.30
49184;DHT22;35021;49.214;12.270;2023-07-20T03:07:29;22.90;59.30
49184;DHT22;35021;49.214;12.270;2023-07-20T03:09:56;22.90;59.30
49184;DHT22;35021;49.214;12.270;2023-07-20T03:12:23;22.90;59.20
49184;DHT22;35021;49.214;12.270;2023-07-20T03:14:51;22.90;59.30
49184;DHT22;35021;49.214;12.270;2023-07-20T03:17:18;22.90;59.90
49184;DHT22;35021;49.214;12.270;2023-07-20T03:19:45;22.90;59.20
49184;DHT22;35021;49.214;12.270;2023-07-20T03:22:11;22.90;59.30
49184;DHT22;35021;49.214;12.270;2023-07-20T03:24:38;22.90;59.30
49184;DHT22;35021;49.214;12.270;2023-07-20T03:27:05;22.90;59.40
49184;DHT22;35021;49.214;12.270;2023-07-20T03:29:32;22.80;59.50
49184;DHT22;35021;49.214;12.270;2023-07-20T03:32:00;22.70;59.70
49184;DHT22;35021;49.214;12.270;2023-07-20T03:34:26;22.70;59.80
49184;DHT22;35021;49.214;12.270;2023-07-20T03:36:54;22.70;60.00
49184;DHT22;35021;49.214;12.270;2023-07-20T03:39:22;22.70;60.20
49184;DHT22;35021;49.214;12.270;2023-07-20T03:41:49;22.60;60.20
49184;DHT22;35021;49.214;12.270;2023-07-20T03:44:16;22.60;60.30
49184;DHT22;35021;49.214;12.270;2023-07-20T03:46:43;22.60;60.40
49184;DHT22;35021;49.214;12.270;2023-07-20T03:49:10;22.60;60.40
49184;DHT22;35021;49.214;12.270;2023-07-20T03:51:37;22.60;60.50
49184;DHT22;35021;49.214;12.270;2023-07-20T03:54:04;22.60;61.20
49184;DHT22;35021;49.214;12.270;2023-07-20T03:56:31;22.60;60.50
49184;DHT22;35021;49.214;12.270;2023-07-20T03:59:02;22.60;60.60
49184;DHT22;35021;49.214;12.270;2023-07-20T04:01:29;22.60;60.70
49184;DHT22;35021;49.214;12.270;2023-07-20T04:03:56;22.50;60.70
49184;DHT22;35021;49.214;12.270;2023-07-20T04:06:24;22.50;60.80
49184;DHT22;35021;49.214;12.270;2023-07-20T04:08:51;22.50;60.80
49184;DHT22;35021;49.214;12.270;2023-07-20T04:11:18;22.50;60.80
49184;DHT22;35021;49.214;12.270;2023-07-20T04:13:45;22.50;60.80
49184;DHT22;35021;49.214;12.270;2023-07-20T04:16:11;22.50;60.90
49184;DHT22;35021;49.214;12.270;2023-07-20T04:18:38;22.50;60.90
49184;DHT22;35021;49.214;12.270;2023-07-20T04:21:08;22.50;60.90
49184;DHT22;35021;49.214;12.270;2023-07-20T04:23:35;22.50;61.70
49184;DHT22;35021;49.214;12.270;2023-07-20T04:26:03;22.50;61.00
49184;DHT22;35021;49.214;12.270;2023-07-20T04:28:30;22.50;61.10
49184;DHT22;35021;49.214;12.270;2023-07-20T04:31:09;22.50;61.20
49184;DHT22;35021;49.214;12.270;2023-07-20T04:33:38;22.50;61.20
49184;DHT22;35021;49.214;12.270;2023-07-20T04:36:05;22.40;61.30
49184;DHT22;35021;49.214;12.270;2023-07-20T04:38:32;22.40;61.30
49184;DHT22;35021;49.214;12.270;2023-07-20T04:40:59;22.40;61.30
49184;DHT22;35021;49.214;12.270;2023-07-20T04:43:29;22.40;61.40
49184;DHT22;35021;49.214;12.270;2023-07-20T04:45:56;22.40;61.50
49184;DHT22;35021;49.214;12.270;2023-07-20T04:48:23;22.40;61.60
49184;DHT22;35021;49.214;12.270;2023-07-20T04:50:50;22.40;61.70
49184;DHT22;35021;49.214;12.270;2023-07-20T04:53:17;22.40;61.80
49184;DHT22;35021;49.214;12.270;2023-07-20T04:55:50;22.40;61.80
49184;DHT22;35021;49.214;12.270;2023-07-20T04:58:19;22.40;62.00
49184;DHT22;35021;49.214;12.270;2023-07-20T05:00:47;22.40;62.00
49184;DHT22;35021;49.214;12.270;2023-07-20T05:03:14;22.40;62.00
49184;DHT22;35021;49.214;12.270;2023-07-20T05:05:41;22.40;62.10
49184;DHT22;35021;49.214;12.270;2023-07-20T05:08:08;22.40;62.20
49184;DHT22;35021;49.214;12.270;2023-07-20T05:10:35;22.40;62.20
49184;DHT22;35021;49.214;12.270;2023-07-20T05:13:02;22.40;62.30
49184;DHT22;35021;49.214;12.270;2023-07-20T05:15:28;22.40;62.30
49184;DHT22;35021;49.214;12.270;2023-07-20T05:17:55;22.40;62.40
49184;DHT22;35021;49.214;12.270;2023-07-20T05:20:22;22.40;62.30
49184;DHT22;35021;49.214;12.270;2023-07-20T05:22:49;22.50;62.30
49184;DHT22;35021;49.214;12.270;2023-07-20T05:25:16;22.50;62.30
49184;DHT22;35021;49.214;12.270;2023-07-20T05:27:45;22.40;62.30
49184;DHT22;35021;49.214;12.270;2023-07-20T05:30:13;22.40;62.30
49184;DHT22;35021;49.214;12.270;2023-07-20T05:32:40;22.40;62.40
49184;DHT22;35021;49.214;12.270;2023-07-20T05:35:07;22.40;62.60
49184;DHT22;35021;49.214;12.270;2023-07-20T05:37:35;22.40;62.70
49184;DHT22;35021;49.214;12.270;2023-07-20T05:40:02;22.40;62.70
49184;DHT22;35021;49.214;12.270;2023-07-20T05:42:29;22.40;62.70
49184;DHT22;35021;49.214;12.270;2023-07-20T05:44:56;22.40;62.80
49184;DHT22;35021;49.214;12.270;2023-07-20T05:47:23;22.30;62.80
49184;DHT22;35021;49.214;12.270;2023-07-20T05:49:50;22.40;63.00
49184;DHT22;35021;49.214;12.270;2023-07-20T05:52:17;22.40;63.10
49184;DHT22;35021;49.214;12.270;2023-07-20T05:54:43;22.30;63.00
49184;DHT22;35021;49.214;12.270;2023-07-20T05:57:11;22.30;63.10
49184;DHT22;35021;49.214;12.270;2023-07-20T05:59:38;22.30;63.10
49184;DHT22;35021;49.214;12.270;2023-07-20T06:02:05;22.40;63.30
49184;DHT22;35021;49.214;12.270;2023-07-20T06:04:32;22.30;63.30
49184;DHT22;35021;49.214;12.270;2023-07-20T06:06:59;22.30;63.40
49184;DHT22;35021;49.214;12.270;2023-07-20T06:09:26;22.30;63.40
49184;DHT22;35021;49.214;12.270;2023-07-20T06:11:54;22.30;63.40
49184;DHT22;35021;49.214;12.270;2023-07-20T06:14:21;22.30;63.50
49184;DHT22;35021;49.214;12.270;2023-07-20T06:16:48;22.30;63.40
49184;DHT22;35021;49.214;12.270;2023-07-20T06:19:15;22.30;63.50
49184;DHT22;35021;49.214;12.270;2023-07-20T06:21:43;22.30;64.10
49184;DHT22;35021;49.214;12.270;2023-07-20T06:24:10;22.30;63.40
49184;DHT22;35021;49.214;12.270;2023-07-20T06:26:37;22.30;63.40
49184;DHT22;35021;49.214;12.270;2023-07-20T06:29:07;22.30;63.40
49184;DHT22;35021;49.214;12.270;2023-07-20T06:31:35;22.30;63.30
49184;DHT22;35021;49.214;12.270;2023-07-20T06:34:02;22.30;63.20
49184;DHT22;35021;49.214;12.270;2023-07-20T06:36:29;22.40;63.10
49184;DHT22;35021;49.214;12.270;2023-07-20T06:38:56;22.30;63.00
49184;DHT22;35021;49.214;12.270;2023-07-20T06:41:26;22.40;63.00
49184;DHT22;35021;49.214;12.270;2023-07-20T06:43:56;22.40;62.90
49184;DHT22;35021;49.214;12.270;2023-07-20T06:46:25;22.40;62.80
49184;DHT22;35021;49.214;12.270;2023-07-20T06:48:53;22.40;62.80
49184;DHT22;35021;49.214;12.270;2023-07-20T06:51:23;22.50;62.70
49184;DHT22;35021;49.214;12.270;2023-07-20T06:53:51;22.40;62.60
49184;DHT22;35021;49.214;12.270;2023-07-20T06:56:17;22.50;62.40
49184;DHT22;35021;49.214;12.270;2023-07-20T06:58:47;22.50;62.30
49184;DHT22;35021;49.214;12.270;2023-07-20T07:01:14;22.50;62.20
49184;DHT22;35021;49.214;12.270;2023-07-20T07:03:41;22.40;62.20
49184;DHT22;35021;49.214;12.270;2023-07-20T07:06:08;22.40;62.10
49184;DHT22;35021;49.214;12.270;2023-07-20T07:08:36;22.40;62.00
49184;DHT22;35021;49.214;12.270;2023-07-20T07:11:02;22.40;62.00
49184;DHT22;35021;49.214;12.270;2023-07-20T07:13:29;22.40;62.00
49184;DHT22;35021;49.214;12.270;2023-07-20T07:15:57;22.40;62.10
49184;DHT22;35021;49.214;12.270;2023-07-20T07:18:24;22.40;62.10
49184;DHT22;35021;49.214;12.270;2023-07-20T07:20:52;22.40;62.00
49184;DHT22;35021;49.214;12.270;2023-07-20T07:23:19;22.40;62.00
49184;DHT22;35021;49.214;12.270;2023-07-20T07:25:47;22.40;61.90
49184;DHT22;35021;49.214;12.270;2023-07-20T07:28:14;22.40;61.80
49184;DHT22;35021;49.214;12.270;2023-07-20T07:30:41;22.40;61.70
49184;DHT22;35021;49.214;12.270;2023-07-20T07:33:08;22.40;61.70
49184;DHT22;35021;49.214;12.270;2023-07-20T07:35:37;22.40;61.60
49184;DHT22;35021;49.214;12.270;2023-07-20T07:38:03;22.50;61.50
49184;DHT22;35021;49.214;12.270;2023-07-20T07:40:50;22.50;61.40
49184;DHT22;35021;49.214;12.270;2023-07-20T07:43:17;22.40;61.20
49184;DHT22;35021;49.214;12.270;2023-07-20T07:45:44;22.50;61.20
49184;DHT22;35021;49.214;12.270;2023-07-20T07:48:11;22.50;61.10
49184;DHT22;35021;49.214;12.270;2023-07-20T07:50:39;22.50;61.10
49184;DHT22;35021;49.214;12.270;2023-07-20T07:53:09;22.50;61.10
49184;DHT22;35021;49.214;12.270;2023-07-20T07:55:37;22.50;61.00
49184;DHT22;35021;49.214;12.270;2023-07-20T07:58:03;22.50;61.00
49184;DHT22;35021;49.214;12.270;2023-07-20T08:00:30;22.50;60.80
49184;DHT22;35021;49.214;12.270;2023-07-20T08:02:57;22.50;60.80
49184;DHT22;35021;49.214;12.270;2023-07-20T08:05:25;22.50;60.80
49184;DHT22;35021;49.214;12.270;2023-07-20T08:07:52;22.50;60.80
49184;DHT22;35021;49.214;12.270;2023-07-20T08:10:19;22.40;60.70
49184;DHT22;35021;49.214;12.270;2023-07-20T08:12:46;22.40;60.70
49184;DHT22;35021;49.214;12.270;2023-07-20T08:15:13;22.40;60.80
49184;DHT22;35021;49.214;12.270;2023-07-20T08:17:41;22.40;60.80
49184;DHT22;35021;49.214;12.270;2023-07-20T08:20:12;22.40;60.90
49184;DHT22;35021;49.214;12.270;2023-07-20T08:22:39;22.40;60.90
49184;DHT22;35021;49.214;12.270;2023-07-20T08:25:06;22.30;60.80
49184;DHT22;35021;49.214;12.270;2023-07-20T08:27:33;22.30;60.80
49184;DHT22;35021;49.214;12.270;2023-07-20T08:30:00;22.30;60.70
49184;DHT22;35021;49.214;12.270;2023-07-20T08:32:28;22.30;60.50
49184;DHT22;35021;49.214;12.270;2023-07-20T08:34:55;22.30;60.30
49184;DHT22;35021;49.214;12.270;2023-07-20T08:37:22;22.30;60.30
49184;DHT22;35021;49.214;12.270;2023-07-20T08:39:49;22.40;60.20
49184;DHT22;35021;49.214;12.270;2023-07-20T08:42:16;22.40;60.20
49184;DHT22;35021;49.214;12.270;2023-07-20T08:44:48;22.40;60.00
49184;DHT22;35021;49.214;12.270;2023-07-20T08:47:16;22.40;60.00
49184;DHT22;35021;49.214;12.270;2023-07-20T08:49:43;22.40;59.80
49184;DHT22;35021;49.214;12.270;2023-07-20T08:52:11;22.40;59.70
49184;DHT22;35021;49.214;12.270;2023-07-20T08:54:39;22.40;59.70
49184;DHT22;35021;49.214;12.270;2023-07-20T08:57:06;22.40;59.60
49184;DHT22;35021;49.214;12.270;2023-07-20T08:59:36;22.40;59.50
49184;DHT22;35021;49.214;12.270;2023-07-20T09:02:04;22.40;59.50
49184;DHT22;35021;49.214;12.270;2023-07-20T09:04:32;22.40;59.40
49184;DHT22;35021;49.214;12.270;2023-07-20T09:06:59;22.40;59.00
49184;DHT22;35021;49.214;12.270;2023-07-20T09:09:26;22.40;58.90
49184;DHT22;35021;49.214;12.270;2023-07-20T09:11:53;22.40;58.90
49184;DHT22;35021;49.214;12.270;2023-07-20T09:14:23;22.40;58.80
49184;DHT22;35021;49.214;12.270;2023-07-20T09:16:54;22.40;59.30
49184;DHT22;35021;49.214;12.270;2023-07-20T09:19:21;22.40;58.60
49184;DHT22;35021;49.214;12.270;2023-07-20T09:21:50;22.50;58.50
49184;DHT22;35021;49.214;12.270;2023-07-20T09:24:18;22.50;58.50
49184;DHT22;35021;49.214;12.270;2023-07-20T09:26:47;22.40;58.40
49184;DHT22;35021;49.214;12.270;2023-07-20T09:29:18;22.50;58.50
49184;DHT22;35021;49.214;12.270;2023-07-20T09:32:04;22.50;58.50
49184;DHT22;35021;49.214;12.270;2023-07-20T09:34:31;22.50;58.50
49184;DHT22;35021;49.214;12.270;2023-07-20T09:37:01;22.50;58.50
49184;DHT22;35021;49.214;12.270;2023-07-20T09:39:29;22.50;58.30
49184;DHT22;35021;49.214;12.270;2023-07-20T09:42:00;22.50;58.20
49184;DHT22;35021;49.214;12.270;2023-07-20T09:44:34;22.50;58.10
49184;DHT22;35021;49.214;12.270;2023-07-20T09:47:04;22.50;58.00
49184;DHT22;35021;49.214;12.270;2023-07-20T09:49:32;22.50;58.10
49184;DHT22;35021;49.214;12.270;2023-07-20T09:52:19;22.50;57.80
49184;DHT22;35021;49.214;12.270;2023-07-20T09:54:50;22.50;57.80
49184;DHT22;35021;49.214;12.270;2023-07-20T09:57:17;22.50;57.70
49184;DHT22;35021;49.214;12.270;2023-07-20T09:59:44;22.50;57.70
49184;DHT22;35021;49.214;12.270;2023-07-20T10:02:26;22.50;57.70
49184;DHT22;35021;49.214;12.270;2023-07-20T10:04:55;22.50;57.60
49184;DHT22;35021;49.214;12.270;2023-07-20T10:07:26;22.50;57.50
49184;DHT22;35021;49.214;12.270;2023-07-20T10:09:56;22.50;57.60
49184;DHT22;35021;49.214;12.270;2023-07-20T10:12:27;22.50;57.40
49184;DHT22;35021;49.214;12.270;2023-07-20T10:15:12;22.50;57.60
49184;DHT22;35021;49.214;12.270;2023-07-20T10:18:07;22.60;57.40
49184;DHT22;35021;49.214;12.270;2023-07-20T10:20:36;22.60;57.10
49184;DHT22;35021;49.214;12.270;2023-07-20T10:23:27;22.60;57.20
49184;DHT22;35021;49.214;12.270;2023-07-20T10:25:56;22.60;56.80
49184;DHT22;35021;49.214;12.270;2023-07-20T10:28:23;22.60;56.80
49184;DHT22;35021;49.214;12.270;2023-07-20T10:30:51;22.60;56.80
49184;DHT22;35021;49.214;12.270;2023-07-20T10:33:18;22.50;56.90
49184;DHT22;35021;49.214;12.270;2023-07-20T10:36:01;22.60;56.60
49184;DHT22;35021;49.214;12.270;2023-07-20T10:41:27;22.60;56.20
49184;DHT22;35021;49.214;12.270;2023-07-20T10:44:07;22.60;56.30
49184;DHT22;35021;49.214;12.270;2023-07-20T10:49:07;22.60;55.80
49184;DHT22;35021;49.214;12.270;2023-07-20T10:51:46;22.60;55.70
49184;DHT22;35021;49.214;12.270;2023-07-20T10:56:47;22.70;55.90
49184;DHT22;35021;49.214;12.270;2023-07-20T11:01:49;22.70;55.90
49184;DHT22;35021;49.214;12.270;2023-07-20T11:04:17;22.70;56.00
49184;DHT22;35021;49.214;12.270;2023-07-20T11:06:46;22.70;55.90
49184;DHT22;35021;49.214;12.270;2023-07-20T11:09:14;22.70;55.90
49184;DHT22;35021;49.214;12.270;2023-07-20T11:14:22;22.80;55.30
49184;DHT22;35021;49.214;12.270;2023-07-20T11:16:50;22.80;55.10
49184;DHT22;35021;49.214;12.270;2023-07-20T11:19:25;22.80;54.80
49184;DHT22;35021;49.214;12.270;2023-07-20T11:21:57;22.80;55.00
49184;DHT22;35021;49.214;12.270;2023-07-20T11:24:30;22.80;54.70
49184;DHT22;35021;49.214;12.270;2023-07-20T11:26:58;22.90;54.90
49184;DHT22;35021;49.214;12.270;2023-07-20T11:29:25;22.90;54.60
49184;DHT22;35021;49.214;12.270;2023-07-20T11:31:56;22.90;54.70
49184;DHT22;35021;49.214;12.270;2023-07-20T11:34:25;22.90;54.30
49184;DHT22;35021;49.214;12.270;2023-07-20T11:36:53;22.90;54.30
49184;DHT22;35021;49.214;12.270;2023-07-20T11:39:24;22.90;54.30
49184;DHT22;35021;49.214;12.270;2023-07-20T11:41:54;22.90;54.60
49184;DHT22;35021;49.214;12.270;2023-07-20T11:44:26;23.00;54.50
49184;DHT22;35021;49.214;12.270;2023-07-20T11:47:01;23.00;54.10
49184;DHT22;35021;49.214;12.270;2023-07-20T11:49:30;23.00;54.70
49184;DHT22;35021;49.214;12.270;2023-07-20T11:52:01;23.00;54.60
49184;DHT22;35021;49.214;12.270;2023-07-20T11:54:28;23.00;54.70
49184;DHT22;35021;49.214;12.270;2023-07-20T11:56:55;23.00;55.40
49184;DHT22;35021;49.214;12.270;2023-07-20T11:59:22;23.10;54.60
49184;DHT22;35021;49.214;12.270;2023-07-20T12:01:49;23.00;54.50
49184;DHT22;35021;49.214;12.270;2023-07-20T12:04:16;23.10;54.50
49184;DHT22;35021;49.214;12.270;2023-07-20T12:06:45;23.10;54.10
49184;DHT22;35021;49.214;12.270;2023-07-20T12:09:14;23.10;54.20
49184;DHT22;35021;49.214;12.270;2023-07-20T12:11:44;23.10;54.20
49184;DHT22;35021;49.214;12.270;2023-07-20T12:14:14;23.10;54.20
49184;DHT22;35021;49.214;12.270;2023-07-20T12:16:44;23.20;54.20
49184;DHT22;35021;49.214;12.270;2023-07-20T12:19:12;23.20;54.00
49184;DHT22;35021;49.214;12.270;2023-07-20T12:21:41;23.10;53.90
49184;DHT22;35021;49.214;12.270;2023-07-20T12:24:10;23.10;53.80
49184;DHT22;35021;49.214;12.270;2023-07-20T12:26:37;23.10;53.90
49184;DHT22;35021;49.214;12.270;2023-07-20T12:29:04;23.00;53.70
49184;DHT22;35021;49.214;12.270;2023-07-20T12:31:36;23.00;53.80
49184;DHT22;35021;49.214;12.270;2023-07-20T12:34:03;22.90;53.60
49184;DHT22;35021;49.214;12.270;2023-07-20T12:36:30;22.90;53.90
49184;DHT22;35021;49.214;12.270;2023-07-20T12:38:58;22.90;54.10
49184;DHT22;35021;49.214;12.270;2023-07-20T12:41:25;22.90;54.60
49184;DHT22;35021;49.214;12.270;2023-07-20T12:43:52;22.90;54.40
49184;DHT22;35021;49.214;12.270;2023-07-20T12:46:20;22.90;54.60
49184;DHT22;35021;49.214;12.270;2023-07-20T12:48:47;22.80;54.80
49184;DHT22;35021;49.214;12.270;2023-07-20T12:51:16;22.80;54.40
49184;DHT22;35021;49.214;12.270;2023-07-20T12:53:44;22.80;53.70
49184;DHT22;35021;49.214;12.270;2023-07-20T12:56:10;22.80;54.00
49184;DHT22;35021;49.214;12.270;2023-07-20T12:58:40;22.80;54.00
49184;DHT22;35021;49.214;12.270;2023-07-20T13:01:07;22.80;53.90
49184;DHT22;35021;49.214;12.270;2023-07-20T13:03:34;22.80;53.90
49184;DHT22;35021;49.214;12.270;2023-07-20T13:06:19;22.80;54.00
49184;DHT22;35021;49.214;12.270;2023-07-20T13:08:49;22.80;54.00
49184;DHT22;35021;49.214;12.270;2023-07-20T13:11:17;22.90;54.50
49184;DHT22;35021;49.214;12.270;2023-07-20T13:13:44;22.90;54.10
49184;DHT22;35021;49.214;12.270;2023-07-20T13:16:11;22.90;54.20
49184;DHT22;35021;49.214;12.270;2023-07-20T13:18:38;22.90;54.00
49184;DHT22;35021;49.214;12.270;2023-07-20T13:21:05;22.90;53.90
49184;DHT22;35021;49.214;12.270;2023-07-20T13:23:38;22.90;53.90
49184;DHT22;35021;49.214;12.270;2023-07-20T13:26:05;22.90;53.70
49184;DHT22;35021;49.214;12.270;2023-07-20T13:28:32;22.90;53.70
49184;DHT22;35021;49.214;12.270;2023-07-20T13:30:59;22.90;53.90
49184;DHT22;35021;49.214;12.270;2023-07-20T13:33:26;22.90;54.00
49184;DHT22;35021;49.214;12.270;2023-07-20T13:35:55;22.90;53.30
49184;DHT22;35021;49.214;12.270;2023-07-20T13:38:21;22.90;52.60
49184;DHT22;35021;49.214;12.270;2023-07-20T13:40:49;23.00;52.20
49184;DHT22;35021;49.214;12.270;2023-07-20T13:43:16;23.00;52.50
49184;DHT22;35021;49.214;12.270;2023-07-20T13:45:42;23.00;52.10
49184;DHT22;35021;49.214;12.270;2023-07-20T13:48:09;23.00;52.00
49184;DHT22;35021;49.214;12.270;2023-07-20T13:50:36;23.00;52.40
49184;DHT22;35021;49.214;12.270;2023-07-20T13:53:08;23.00;52.50
49184;DHT22;35021;49.214;12.270;2023-07-20T13:55:38;22.90;52.60
49184;DHT22;35021;49.214;12.270;2023-07-20T13:58:08;23.00;52.70
49184;DHT22;35021;49.214;12.270;2023-07-20T14:00:39;23.00;52.60
49184;DHT22;35021;49.214;12.270;2023-07-20T14:03:06;23.00;52.40
49184;DHT22;35021;49.214;12.270;2023-07-20T14:05:36;23.00;52.80
49184;DHT22;35021;49.214;12.270;2023-07-20T14:08:05;23.00;53.00
49184;DHT22;35021;49.214;12.270;2023-07-20T14:10:32;23.00;52.90
49184;DHT22;35021;49.214;12.270;2023-07-20T14:13:00;23.10;52.90
49184;DHT22;35021;49.214;12.270;2023-07-20T14:15:26;23.10;52.90
49184;DHT22;35021;49.214;12.270;2023-07-20T14:17:53;23.10;52.60
49184;DHT22;35021;49.214;12.270;2023-07-20T14:20:20;23.10;52.90
49184;DHT22;35021;49.214;12.270;2023-07-20T14:22:48;23.10;52.90
49184;DHT22;35021;49.214;12.270;2023-07-20T14:25:17;23.10;53.00
49184;DHT22;35021;49.214;12.270;2023-07-20T14:27:45;23.10;52.60
49184;DHT22;35021;49.214;12.270;2023-07-20T14:30:13;23.10;53.00
49184;DHT22;35021;49.214;12.270;2023-07-20T14:32:41;23.10;52.70
49184;DHT22;35021;49.214;12.270;2023-07-20T14:35:08;23.10;52.10
49184;DHT22;35021;49.214;12.270;2023-07-20T14:37:37;23.10;51.60
49184;DHT22;35021;49.214;12.270;2023-07-20T14:40:04;23.10;52.10
49184;DHT22;35021;49.214;12.270;2023-07-20T14:42:34;23.20;52.00
49184;DHT22;35021;49.214;12.270;2023-07-20T14:45:01;23.20;51.90
49184;DHT22;35021;49.214;12.270;2023-07-20T14:47:29;23.20;51.80
49184;DHT22;35021;49.214;12.270;2023-07-20T14:49:59;23.20;51.50
49184;DHT22;35021;49.214;12.270;2023-07-20T14:52:26;23.20;51.60
49184;DHT22;35021;49.214;12.270;2023-07-20T14:54:55;23.20;52.10
49184;DHT22;35021;49.214;12.270;2023-07-20T14:57:22;23.20;51.90
49184;DHT22;35021;49.214;12.270;2023-07-20T14:59:50;23.20;52.20
49184;DHT22;35021;49.214;12.270;2023-07-20T15:02:17;23.20;52.20
49184;DHT22;35021;49.214;12.270;2023-07-20T15:04:50;23.20;52.10
49184;DHT22;35021;49.214;12.270;2023-07-20T15:07:20;23.20;52.00
49184;DHT22;35021;49.214;12.270;2023-07-20T15:09:48;23.20;51.90
49184;DHT22;35021;49.214;12.270;2023-07-20T15:12:15;23.20;52.30
49184;DHT22;35021;49.214;12.270;2023-07-20T15:14:42;23.20;52.30
49184;DHT22;35021;49.214;12.270;2023-07-20T15:17:10;23.20;52.60
49184;DHT22;35021;49.214;12.270;2023-07-20T15:19:37;23.20;52.40
49184;DHT22;35021;49.214;12.270;2023-07-20T15:22:04;23.20;52.50
49184;DHT22;35021;49.214;12.270;2023-07-20T15:24:34;23.20;52.70
49184;DHT22;35021;49.214;12.270;2023-07-20T15:27:03;23.20;52.70
49184;DHT22;35021;49.214;12.270;2023-07-20T15:29:30;23.30;52.60
49184;DHT22;35021;49.214;12.270;2023-07-20T15:32:00;23.30;52.40
49184;DHT22;35021;49.214;12.270;2023-07-20T15:34:27;23.30;52.50
49184;DHT22;35021;49.214;12.270;2023-07-20T15:36:54;23.30;51.90
49184;DHT22;35021;49.214;12.270;2023-07-20T15:39:21;23.30;51.90